Aeroporto :
LOGIN :

Iscrizione | Disclaimer

   EN    FR    IT 

 










Sommario :    VFR   VFR Marginale   IFR   IFR Intensivo   IFR Molto Intensivo
Visibilità : 
Base nubi : 
>= 8 km
>= 3000ft
5 / 8 km
1000 / 3000 ft
1500m / 5 km
500 / 1000 ft
800 / 1500m
200 / 500 ft
< 800m
< 200 ft
Simboli :   Temporali  Nebbia  Neve Forte  Precipitazioni Forti  Vento > 20 kt
SIGMETs :   Varie  Temporali  Ghiacco  Turbolenza  Onda orograficha  Ceneri Vulcaniche






- Altitudine del aeroporto : 124 ft
- Codice IATA : NHT


EGWU - RAF Northolt

ULTIMO METAR :
  • 082150Z 26014KT 9999 BKN031 BKN070 06/02 Q0997 NOSIG RMK BLU BLU

METARs OBSOLETI :
  • 082127Z 25016KT 9999 SCT043 BKN070 06/02 Q0997 NOSIG RMK BLU BLU
  • 082050Z 25012KT 9999 -RA SCT050 BKN070 06/02 Q0997 NOSIG RMK BLU BLU
  • 082020Z 26017KT 9999 SCT049 BKN100 06/02 Q0997 NOSIG RMK BLU BLU
  • 081950Z 26016KT CAVOK 07/01 Q0996 NOSIG RMK BLU BLU
  • 081920Z 25013KT CAVOK 07/00 Q0996 NOSIG RMK BLU BLU

TAF AMD TAF EGWU
Valido dal 08 a 21 ore il 09 a 15 ore UTC


082005Z 0821/0915 24014KT 9999 SCT040
TEMPO 0821/0908 -RA BKN018
PROB30
TEMPO 0821/0823 24015G25KT



MetMap, La meteo Aeronautica in un colpo d'occhio ! - Copyright ORBIFLY Dicembre 2007 - Disclaimer

ORBIFLY MET'MAP TEAM :

Programmazione e sviluppo : Alexandra Zaïnal
Concezione : Baudouin d'Aumeries
Aiuto per la programmazione : Marc-Olivier Méhu
Supporto tecnico e logistico : Manuel Goepfert
Aiuto per la traduzione : Arnaldo La Scala

Contatto : metmap@orbifly.com




FONTI E CREDITI :

   NOAA